createdAt,value
2023-02-11T00:00:01.750Z,1030.71
2023-02-11T00:01:00.918Z,1030.77
2023-02-11T00:02:01.173Z,1030.72
2023-02-11T00:03:01.160Z,1030.72
2023-02-11T00:04:01.134Z,1030.61
2023-02-11T00:05:01.146Z,1030.61
2023-02-11T00:06:00.827Z,1030.58
2023-02-11T00:07:00.393Z,1030.51
2023-02-11T00:08:00.034Z,1030.54
2023-02-11T00:08:59.715Z,1030.47
2023-02-11T00:10:02.130Z,1030.51
2023-02-11T00:11:01.388Z,1030.5
2023-02-11T00:12:01.837Z,1030.43
2023-02-11T00:13:01.088Z,1030.5
2023-02-11T00:14:01.104Z,1030.44
2023-02-11T00:15:01.100Z,1030.42
2023-02-11T00:16:00.941Z,1030.36
2023-02-11T00:17:01.322Z,1030.39
2023-02-11T00:18:02.188Z,1030.35
2023-02-11T00:19:02.969Z,1030.36
2023-02-11T00:20:01.146Z,1030.36
2023-02-11T00:21:00.611Z,1030.32
2023-02-11T00:22:00.240Z,1030.27
2023-02-11T00:23:00.718Z,1030.2
2023-02-11T00:24:01.162Z,1030.22
2023-02-11T00:25:01.205Z,1030.25
2023-02-11T00:26:00.599Z,1030.23
2023-02-11T00:27:00.186Z,1030.15
2023-02-11T00:27:59.817Z,1030.13
2023-02-11T00:29:02.529Z,1030.08
2023-02-11T00:30:02.644Z,1030.11
2023-02-11T00:31:01.374Z,1030.1
2023-02-11T00:32:01.134Z,1030.05
2023-02-11T00:33:01.112Z,1030.02
2023-02-11T00:34:01.117Z,1030.02
2023-02-11T00:35:01.552Z,1030.01
2023-02-11T00:36:00.710Z,1029.98
2023-02-11T00:37:00.300Z,1029.98
2023-02-11T00:37:59.924Z,1029.94
2023-02-11T00:38:59.615Z,1029.93
2023-02-11T00:40:01.209Z,1029.96
2023-02-11T00:41:00.846Z,1029.99
2023-02-11T00:42:00.713Z,1030.01
2023-02-11T00:43:00.427Z,1029.98
2023-02-11T00:44:00.076Z,1030.03
2023-02-11T00:44:59.738Z,1030.01
2023-02-11T00:46:01.472Z,1029.9
2023-02-11T00:47:01.061Z,1029.94
2023-02-11T00:48:01.217Z,1029.93
2023-02-11T00:49:01.228Z,1029.97
2023-02-11T00:50:01.537Z,1029.97
2023-02-11T00:51:02.696Z,1029.93
2023-02-11T00:52:01.134Z,1029.97
2023-02-11T00:53:01.139Z,1029.95
2023-02-11T00:54:01.624Z,1029.94
2023-02-11T00:55:01.820Z,1030.01
2023-02-11T00:56:06.128Z,1029.95
2023-02-11T00:57:01.833Z,1030
2023-02-11T00:58:01.187Z,1030.04
2023-02-11T00:59:01.295Z,1030.04
2023-02-11T01:00:01.080Z,1030.02
2023-02-11T01:01:07.586Z,1030.02
2023-02-11T01:02:01.771Z,1030.04
2023-02-11T01:03:01.789Z,1030.04
2023-02-11T01:04:01.768Z,1030.11
2023-02-11T01:05:01.458Z,1030.12
2023-02-11T01:06:09.588Z,1030.13
2023-02-11T01:07:01.112Z,1030.07
2023-02-11T01:08:01.139Z,1030.02
2023-02-11T01:09:01.525Z,1030.02
2023-02-11T01:10:01.128Z,1029.93
2023-02-11T01:11:13.322Z,1029.95
2023-02-11T01:12:02.405Z,1029.87
2023-02-11T01:13:01.085Z,1029.88
2023-02-11T01:14:01.174Z,1029.85
2023-02-11T01:15:00.795Z,1029.89
2023-02-11T01:16:15.380Z,1029.93
2023-02-11T01:17:01.391Z,1029.92
2023-02-11T01:18:01.428Z,1029.94
2023-02-11T01:19:01.239Z,1029.92
2023-02-11T01:20:02.130Z,1029.91
2023-02-11T01:21:00.909Z,1029.96
2023-02-11T01:22:01.110Z,1029.93
2023-02-11T01:23:01.138Z,1029.87
2023-02-11T01:24:01.080Z,1029.87
2023-02-11T01:25:01.208Z,1029.81
2023-02-11T01:26:00.931Z,1029.86
2023-02-11T01:27:01.163Z,1029.78
2023-02-11T01:28:01.793Z,1029.7
2023-02-11T01:29:01.163Z,1029.64
2023-02-11T01:30:01.186Z,1029.62
2023-02-11T01:31:00.931Z,1029.63
2023-02-11T01:32:01.266Z,1029.53
2023-02-11T01:33:01.090Z,1029.54
2023-02-11T01:34:01.090Z,1029.58
2023-02-11T01:35:01.080Z,1029.5
2023-02-11T01:36:00.680Z,1029.48
2023-02-11T01:37:00.275Z,1029.47
2023-02-11T01:37:59.874Z,1029.49
2023-02-11T01:39:01.804Z,1029.39
2023-02-11T01:40:01.849Z,1029.37
2023-02-11T01:41:01.555Z,1029.33
2023-02-11T01:42:01.134Z,1029.33
2023-02-11T01:43:01.534Z,1029.37
2023-02-11T01:44:01.154Z,1029.42
2023-02-11T01:45:01.065Z,1029.43
2023-02-11T01:46:00.753Z,1029.44
2023-02-11T01:47:00.462Z,1029.42
2023-02-11T01:48:00.154Z,1029.39
2023-02-11T01:48:59.948Z,1029.46
2023-02-11T01:49:59.645Z,1029.47
2023-02-11T01:51:01.280Z,1029.49
2023-02-11T01:52:01.159Z,1029.53
2023-02-11T01:53:01.153Z,1029.57
2023-02-11T01:54:01.435Z,1029.6
2023-02-11T01:55:01.949Z,1029.65
2023-02-11T01:56:01.118Z,1029.65
2023-02-11T01:57:01.137Z,1029.66
2023-02-11T01:58:01.212Z,1029.7
2023-02-11T01:59:01.147Z,1029.57
2023-02-11T02:00:01.858Z,1029.52
2023-02-11T02:01:00.839Z,1029.63
2023-02-11T02:02:00.596Z,1029.59
2023-02-11T02:03:00.258Z,1029.57
2023-02-11T02:04:00.078Z,1029.51
2023-02-11T02:04:59.751Z,1029.49
2023-02-11T02:06:01.481Z,1029.4
2023-02-11T02:07:01.099Z,1029.39
2023-02-11T02:08:01.095Z,1029.33
2023-02-11T02:09:01.775Z,1029.29
2023-02-11T02:10:01.410Z,1029.25
2023-02-11T02:11:01.095Z,1029.28
2023-02-11T02:12:01.300Z,1029.25
2023-02-11T02:13:01.335Z,1029.2
2023-02-11T02:14:01.538Z,1029.16
2023-02-11T02:15:01.167Z,1029.14
2023-02-11T02:16:00.987Z,1029.1
2023-02-11T02:17:01.152Z,1029.06
2023-02-11T02:18:01.176Z,1028.99
2023-02-11T02:19:02.424Z,1029.06
2023-02-11T02:20:02.062Z,1029.07
2023-02-11T02:21:01.053Z,1028.99
2023-02-11T02:22:01.164Z,1028.99
2023-02-11T02:23:01.198Z,1028.95
2023-02-11T02:24:00.757Z,1028.88
2023-02-11T02:25:00.393Z,1028.86
2023-02-11T02:26:00.096Z,1028.81
2023-02-11T02:26:59.963Z,1028.8
2023-02-11T02:27:59.560Z,1028.83
2023-02-11T02:29:01.252Z,1028.89
2023-02-11T02:30:01.126Z,1028.85
2023-02-11T02:31:00.986Z,1028.79
2023-02-11T02:32:01.154Z,1028.82
2023-02-11T02:33:07.912Z,1028.8
2023-02-11T02:34:01.158Z,1028.78
2023-02-11T02:35:01.062Z,1028.72
2023-02-11T02:36:00.749Z,1028.69
2023-02-11T02:37:00.606Z,1028.65
2023-02-11T02:38:00.260Z,1028.61
2023-02-11T02:39:00.107Z,1028.65
2023-02-11T02:39:59.739Z,1028.62
2023-02-11T02:41:01.383Z,1028.53
2023-02-11T02:42:03.858Z,1028.54
2023-02-11T02:43:02.113Z,1028.47
2023-02-11T02:44:01.779Z,1028.47
2023-02-11T02:45:01.047Z,1028.43
2023-02-11T02:46:00.940Z,1028.35
2023-02-11T02:47:07.475Z,1028.3
2023-02-11T02:48:01.156Z,1028.33
2023-02-11T02:49:01.408Z,1028.29
2023-02-11T02:50:02.477Z,1028.28
2023-02-11T02:51:01.050Z,1028.36
2023-02-11T02:52:11.603Z,1028.28
2023-02-11T02:53:01.087Z,1028.32
2023-02-11T02:54:01.087Z,1028.36
2023-02-11T02:55:01.084Z,1028.36
2023-02-11T02:56:00.759Z,1028.31
2023-02-11T02:57:14.268Z,1028.32
2023-02-11T02:58:03.790Z,1028.37
2023-02-11T02:59:01.379Z,1028.36
2023-02-11T03:00:01.113Z,1028.38
2023-02-11T03:01:00.864Z,1028.37
2023-02-11T03:02:01.113Z,1028.33
2023-02-11T03:03:01.167Z,1028.35
2023-02-11T03:04:01.604Z,1028.4
2023-02-11T03:05:01.262Z,1028.43
2023-02-11T03:06:01.716Z,1028.44
2023-02-11T03:07:01.284Z,1028.43
2023-02-11T03:08:01.163Z,1028.51
2023-02-11T03:09:03.873Z,1028.61
2023-02-11T03:10:01.059Z,1028.58
2023-02-11T03:11:00.861Z,1028.58
2023-02-11T03:12:01.094Z,1028.55
2023-02-11T03:13:01.809Z,1028.63
2023-02-11T03:14:01.062Z,1028.67
2023-02-11T03:15:01.538Z,1028.61
2023-02-11T03:16:00.990Z,1028.61
2023-02-11T03:17:01.546Z,1028.61
2023-02-11T03:18:01.131Z,1028.62
2023-02-11T03:19:01.120Z,1028.62
2023-02-11T03:20:01.124Z,1028.63
2023-02-11T03:21:00.831Z,1028.55
2023-02-11T03:22:00.538Z,1028.53
2023-02-11T03:23:00.338Z,1028.53
2023-02-11T03:24:00.018Z,1028.47
2023-02-11T03:24:59.708Z,1028.41
2023-02-11T03:26:01.369Z,1028.45
2023-02-11T03:27:03.973Z,1028.44
2023-02-11T03:28:01.161Z,1028.43
2023-02-11T03:29:00.684Z,1028.42
2023-02-11T03:30:00.385Z,1028.33
2023-02-11T03:31:00.082Z,1028.41
2023-02-11T03:31:59.868Z,1028.36
2023-02-11T03:32:59.567Z,1028.32
2023-02-11T03:34:01.145Z,1028.32
2023-02-11T03:35:01.126Z,1028.39
2023-02-11T03:36:00.823Z,1028.32
2023-02-11T03:37:00.660Z,1028.31
2023-02-11T03:38:00.262Z,1028.33
2023-02-11T03:38:59.863Z,1028.36
2023-02-11T03:39:59.518Z,1028.37
2023-02-11T03:41:01.136Z,1028.37
2023-02-11T03:42:01.166Z,1028.35
2023-02-11T03:43:01.088Z,1028.3
2023-02-11T03:44:00.787Z,1028.3
2023-02-11T03:45:00.480Z,1028.31
2023-02-11T03:46:00.421Z,1028.23
2023-02-11T03:47:00.167Z,1028.23
2023-02-11T03:47:59.880Z,1028.19
2023-02-11T03:48:59.559Z,1028.22
2023-02-11T03:50:01.170Z,1028.18
2023-02-11T03:51:00.818Z,1028.17
2023-02-11T03:52:00.519Z,1028.18
2023-02-11T03:53:00.131Z,1028.17
2023-02-11T03:53:59.804Z,1028.09
2023-02-11T03:55:01.445Z,1028.13
2023-02-11T03:56:01.251Z,1028.19
2023-02-11T03:57:01.180Z,1028.14
2023-02-11T03:58:01.072Z,1028.18
2023-02-11T03:59:01.376Z,1028.16
2023-02-11T04:00:01.821Z,1028.11
2023-02-11T04:01:01.233Z,1028.16
2023-02-11T04:02:02.006Z,1028.21
2023-02-11T04:03:01.237Z,1028.19
2023-02-11T04:04:00.639Z,1028.2
2023-02-11T04:05:00.316Z,1028.14
2023-02-11T04:06:00.110Z,1028.16
2023-02-11T04:07:00.041Z,1028.17
2023-02-11T04:08:01.198Z,1028.14
2023-02-11T04:09:00.723Z,1028.1
2023-02-11T04:10:01.141Z,1028.1
2023-02-11T04:11:00.835Z,1028.05
2023-02-11T04:12:00.444Z,1028.1
2023-02-11T04:13:03.512Z,1028.04
2023-02-11T04:14:00.836Z,1028.02
2023-02-11T04:15:00.452Z,1027.96
2023-02-11T04:16:00.287Z,1027.98
2023-02-11T04:16:59.891Z,1027.95
2023-02-11T04:18:04.902Z,1028
2023-02-11T04:19:01.476Z,1028.02
2023-02-11T04:20:00.578Z,1028.04
2023-02-11T04:21:00.266Z,1027.94
2023-02-11T04:21:59.871Z,1027.92
2023-02-11T04:23:07.578Z,1027.97
2023-02-11T04:24:01.141Z,1028.03
2023-02-11T04:25:01.131Z,1028.05
2023-02-11T04:26:00.723Z,1028.02
2023-02-11T04:27:00.310Z,1027.97
2023-02-11T04:28:10.669Z,1028.03
2023-02-11T04:29:01.161Z,1028.08
2023-02-11T04:30:01.210Z,1028.02
2023-02-11T04:31:00.906Z,1028.03
2023-02-11T04:32:01.133Z,1027.97
2023-02-11T04:33:14.260Z,1028
2023-02-11T04:34:01.772Z,1027.98
2023-02-11T04:35:01.366Z,1027.94
2023-02-11T04:36:00.993Z,1027.92
2023-02-11T04:37:01.495Z,1027.94
2023-02-11T04:38:01.224Z,1027.93
2023-02-11T04:39:01.132Z,1027.94
2023-02-11T04:40:01.124Z,1027.99
2023-02-11T04:41:00.801Z,1027.93
2023-02-11T04:42:00.386Z,1027.95
2023-02-11T04:43:00.004Z,1027.99
2023-02-11T04:43:59.648Z,1027.95
2023-02-11T04:45:01.544Z,1027.93
2023-02-11T04:46:01.266Z,1027.93
2023-02-11T04:47:01.195Z,1027.91
2023-02-11T04:48:02.350Z,1027.92
2023-02-11T04:49:01.080Z,1027.91
2023-02-11T04:50:01.091Z,1027.86
2023-02-11T04:51:00.756Z,1027.81
2023-02-11T04:52:00.404Z,1027.87
2023-02-11T04:53:00.060Z,1027.81
2023-02-11T04:53:59.660Z,1027.87
2023-02-11T04:55:01.318Z,1027.93
2023-02-11T04:56:01.000Z,1027.96
2023-02-11T04:57:01.174Z,1027.9
2023-02-11T04:58:01.591Z,1027.94
2023-02-11T04:59:00.863Z,1027.92
2023-02-11T05:00:01.159Z,1027.95
2023-02-11T05:01:00.668Z,1027.95
2023-02-11T05:02:00.362Z,1027.87
2023-02-11T05:03:00.149Z,1027.89
2023-02-11T05:03:59.765Z,1027.89
2023-02-11T05:05:01.756Z,1027.87
2023-02-11T05:06:01.167Z,1027.89
2023-02-11T05:07:01.813Z,1027.88
2023-02-11T05:08:01.072Z,1027.9
2023-02-11T05:09:01.067Z,1027.87
2023-02-11T05:10:01.589Z,1027.84
2023-02-11T05:11:00.711Z,1027.76
2023-02-11T05:12:00.388Z,1027.7
2023-02-11T05:12:59.987Z,1027.73
2023-02-11T05:13:59.584Z,1027.69
2023-02-11T05:15:01.168Z,1027.75
2023-02-11T05:16:00.826Z,1027.74
2023-02-11T05:17:00.663Z,1027.7
2023-02-11T05:18:00.350Z,1027.72
2023-02-11T05:19:00.227Z,1027.75
2023-02-11T05:19:59.832Z,1027.67
2023-02-11T05:21:01.690Z,1027.66
2023-02-11T05:22:03.667Z,1027.69
2023-02-11T05:23:01.781Z,1027.73
2023-02-11T05:24:01.772Z,1027.74
2023-02-11T05:25:01.837Z,1027.72
2023-02-11T05:26:01.088Z,1027.71
2023-02-11T05:27:01.112Z,1027.71
2023-02-11T05:28:01.166Z,1027.71
2023-02-11T05:29:01.548Z,1027.73
2023-02-11T05:30:01.142Z,1027.79
2023-02-11T05:31:01.935Z,1027.76
2023-02-11T05:31:59.490Z,1027.78
2023-02-11T05:33:03.153Z,1027.77
2023-02-11T05:34:01.161Z,1027.72
2023-02-11T05:35:02.477Z,1027.77
2023-02-11T05:36:00.844Z,1027.73
2023-02-11T05:37:00.632Z,1027.65
2023-02-11T05:38:00.555Z,1027.69
2023-02-11T05:39:00.160Z,1027.65
2023-02-11T05:39:59.738Z,1027.66
2023-02-11T05:41:01.388Z,1027.66
2023-02-11T05:42:01.108Z,1027.67
2023-02-11T05:43:01.095Z,1027.63
2023-02-11T05:44:03.802Z,1027.63
2023-02-11T05:45:01.287Z,1027.66
2023-02-11T05:46:00.700Z,1027.66
2023-02-11T05:47:00.314Z,1027.62
2023-02-11T05:47:59.993Z,1027.64
2023-02-11T05:48:59.583Z,1027.57
2023-02-11T05:50:01.165Z,1027.62
2023-02-11T05:51:00.830Z,1027.61
2023-02-11T05:52:00.473Z,1027.57
2023-02-11T05:53:00.148Z,1027.5
2023-02-11T05:54:00.844Z,1027.44
2023-02-11T05:55:01.433Z,1027.41
2023-02-11T05:56:01.184Z,1027.44
2023-02-11T05:57:01.098Z,1027.4
2023-02-11T05:58:01.073Z,1027.35
2023-02-11T05:59:03.442Z,1027.4
2023-02-11T06:00:01.123Z,1027.36
2023-02-11T06:01:00.890Z,1027.38
2023-02-11T06:02:01.208Z,1027.43
2023-02-11T06:03:01.736Z,1027.45
2023-02-11T06:04:06.571Z,1027.49
2023-02-11T06:05:02.872Z,1027.51
2023-02-11T06:06:01.150Z,1027.46
2023-02-11T06:07:01.149Z,1027.43
2023-02-11T06:08:01.161Z,1027.41
2023-02-11T06:09:09.240Z,1027.38
2023-02-11T06:10:01.066Z,1027.37
2023-02-11T06:11:00.808Z,1027.37
2023-02-11T06:12:00.720Z,1027.32
2023-02-11T06:13:00.725Z,1027.25
2023-02-11T06:14:11.461Z,1027.27
2023-02-11T06:15:01.399Z,1027.25
2023-02-11T06:16:01.213Z,1027.27
2023-02-11T06:17:00.592Z,1027.22
2023-02-11T06:18:00.204Z,1027.18
2023-02-11T06:19:14.157Z,1027.18
2023-02-11T06:20:01.875Z,1027.24
2023-02-11T06:21:00.833Z,1027.22
2023-02-11T06:22:00.423Z,1027.18
2023-02-11T06:23:00.011Z,1027.19
2023-02-11T06:23:59.617Z,1027.19
2023-02-11T06:25:02.286Z,1027.22
2023-02-11T06:26:01.169Z,1027.17
2023-02-11T06:27:01.100Z,1027.2
2023-02-11T06:28:01.970Z,1027.26
2023-02-11T06:29:01.151Z,1027.23
2023-02-11T06:30:01.241Z,1027.27
2023-02-11T06:31:01.102Z,1027.23
2023-02-11T06:32:01.346Z,1027.25
2023-02-11T06:33:00.895Z,1027.25
2023-02-11T06:34:01.156Z,1027.19
2023-02-11T06:35:01.904Z,1027.27
2023-02-11T06:36:00.928Z,1027.19
2023-02-11T06:37:01.139Z,1027.21
2023-02-11T06:38:01.049Z,1027.22
2023-02-11T06:39:01.073Z,1027.29
2023-02-11T06:40:01.161Z,1027.34
2023-02-11T06:41:00.845Z,1027.3
2023-02-11T06:42:01.296Z,1027.37
2023-02-11T06:43:01.710Z,1027.33
2023-02-11T06:44:02.776Z,1027.34
2023-02-11T06:45:01.408Z,1027.34
2023-02-11T06:46:01.090Z,1027.3
2023-02-11T06:47:01.103Z,1027.29
2023-02-11T06:48:01.117Z,1027.32
2023-02-11T06:49:01.334Z,1027.31
2023-02-11T06:50:00.909Z,1027.36
2023-02-11T06:51:00.608Z,1027.36
2023-02-11T06:52:00.288Z,1027.31
2023-02-11T06:53:00.003Z,1027.35
2023-02-11T06:53:59.785Z,1027.38
2023-02-11T06:55:03.210Z,1027.39
2023-02-11T06:56:01.511Z,1027.35
2023-02-11T06:57:01.159Z,1027.46
2023-02-11T06:58:01.166Z,1027.44
2023-02-11T06:59:01.273Z,1027.47
2023-02-11T07:00:01.092Z,1027.48
2023-02-11T07:01:00.894Z,1027.5
2023-02-11T07:02:01.211Z,1027.53
2023-02-11T07:03:01.184Z,1027.5
2023-02-11T07:04:01.108Z,1027.42
2023-02-11T07:05:01.109Z,1027.44
2023-02-11T07:06:00.780Z,1027.44
2023-02-11T07:07:00.336Z,1027.48
2023-02-11T07:07:59.896Z,1027.48
2023-02-11T07:08:59.765Z,1027.39
2023-02-11T07:10:01.843Z,1027.49
2023-02-11T07:11:01.561Z,1027.5
2023-02-11T07:12:01.493Z,1027.46
2023-02-11T07:13:01.436Z,1027.59
2023-02-11T07:14:03.082Z,1027.54
2023-02-11T07:15:02.278Z,1027.57
2023-02-11T07:16:00.773Z,1027.62
2023-02-11T07:17:00.446Z,1027.67
2023-02-11T07:18:00.070Z,1027.73
2023-02-11T07:18:59.659Z,1027.68
2023-02-11T07:20:01.837Z,1027.69
2023-02-11T07:21:01.546Z,1027.66
2023-02-11T07:22:01.148Z,1027.7
2023-02-11T07:23:01.146Z,1027.68
2023-02-11T07:24:01.162Z,1027.66
2023-02-11T07:25:01.844Z,1027.64
2023-02-11T07:26:00.825Z,1027.71
2023-02-11T07:27:01.174Z,1027.7
2023-02-11T07:28:01.669Z,1027.67
2023-02-11T07:29:01.176Z,1027.67
2023-02-11T07:30:01.181Z,1027.64
2023-02-11T07:31:01.048Z,1027.65
2023-02-11T07:32:01.692Z,1027.67
2023-02-11T07:33:00.879Z,1027.62
2023-02-11T07:34:01.084Z,1027.66
2023-02-11T07:35:00.583Z,1027.58
2023-02-11T07:36:01.005Z,1027.62
2023-02-11T07:37:01.136Z,1027.58
2023-02-11T07:38:01.113Z,1027.55
2023-02-11T07:39:01.112Z,1027.52
2023-02-11T07:40:01.631Z,1027.52
2023-02-11T07:41:01.118Z,1027.53
2023-02-11T07:42:01.179Z,1027.49
2023-02-11T07:43:01.149Z,1027.47
2023-02-11T07:44:01.143Z,1027.52
2023-02-11T07:45:04.207Z,1027.49
2023-02-11T07:46:00.528Z,1027.46
2023-02-11T07:47:00.629Z,1027.47
2023-02-11T07:48:00.580Z,1027.41
2023-02-11T07:49:00.180Z,1027.45
2023-02-11T07:50:06.729Z,1027.36
2023-02-11T07:51:01.490Z,1027.39
2023-02-11T07:52:02.015Z,1027.3
2023-02-11T07:53:01.190Z,1027.27
2023-02-11T07:54:01.793Z,1027.25
2023-02-11T07:55:09.997Z,1027.25
2023-02-11T07:56:01.401Z,1027.28
2023-02-11T07:57:00.523Z,1027.25
2023-02-11T07:58:00.109Z,1027.25
2023-02-11T07:58:59.707Z,1027.2
2023-02-11T08:00:10.062Z,1027.3
2023-02-11T08:01:01.521Z,1027.25
2023-02-11T08:02:01.579Z,1027.24
2023-02-11T08:03:01.599Z,1027.23
2023-02-11T08:04:01.585Z,1027.17
2023-02-11T08:05:12.714Z,1027.18
2023-02-11T08:06:00.857Z,1027.19
2023-02-11T08:07:00.499Z,1027.17
2023-02-11T08:08:00.072Z,1027.2
2023-02-11T08:08:59.769Z,1027.16
2023-02-11T08:10:15.958Z,1027.12
2023-02-11T08:11:01.540Z,1027.12
2023-02-11T08:12:01.140Z,1027.11
2023-02-11T08:13:00.814Z,1027.13
2023-02-11T08:14:01.137Z,1027.06
2023-02-11T08:15:01.181Z,1027.06
2023-02-11T08:16:00.967Z,1027.04
2023-02-11T08:17:01.547Z,1027.06
2023-02-11T08:18:00.655Z,1027.05
2023-02-11T08:19:00.324Z,1027.08
2023-02-11T08:20:00.041Z,1027.05
2023-02-11T08:21:01.063Z,1027.05
2023-02-11T08:22:01.076Z,1027.14
2023-02-11T08:23:01.133Z,1027.13
2023-02-11T08:24:01.092Z,1027.14
2023-02-11T08:25:01.749Z,1027.2
2023-02-11T08:26:00.602Z,1027.2
2023-02-11T08:27:00.383Z,1027.2
2023-02-11T08:28:00.075Z,1027.16
2023-02-11T08:29:00.126Z,1027.2
2023-02-11T08:29:59.890Z,1027.26
2023-02-11T08:30:59.709Z,1027.3
2023-02-11T08:32:01.136Z,1027.31
2023-02-11T08:33:01.146Z,1027.33
2023-02-11T08:34:01.205Z,1027.29
2023-02-11T08:35:01.181Z,1027.28
2023-02-11T08:36:01.081Z,1027.29
2023-02-11T08:37:01.062Z,1027.31
2023-02-11T08:38:01.197Z,1027.34
2023-02-11T08:39:17.569Z,1027.34
2023-02-11T08:40:01.474Z,1027.3
2023-02-11T08:41:01.113Z,1027.3
2023-02-11T08:42:01.111Z,1027.32
2023-02-11T08:43:01.103Z,1027.28
2023-02-11T08:44:01.101Z,1027.32
2023-02-11T08:45:01.809Z,1027.33
2023-02-11T08:46:02.680Z,1027.23
2023-02-11T08:47:01.894Z,1027.19
2023-02-11T08:48:01.676Z,1027.22
2023-02-11T08:49:01.338Z,1027.22
2023-02-11T08:50:02.100Z,1027.22
2023-02-11T08:51:02.132Z,1027.24
2023-02-11T08:52:02.585Z,1027.28
2023-02-11T08:53:01.195Z,1027.29
2023-02-11T08:54:01.096Z,1027.29
2023-02-11T08:55:01.251Z,1027.24
2023-02-11T08:56:01.532Z,1027.26
2023-02-11T08:57:01.123Z,1027.29
2023-02-11T08:58:01.104Z,1027.35
2023-02-11T08:59:01.055Z,1027.35
2023-02-11T09:00:01.103Z,1027.37
2023-02-11T09:01:01.275Z,1027.36
2023-02-11T09:02:01.252Z,1027.38
2023-02-11T09:03:01.125Z,1027.49
2023-02-11T09:04:01.238Z,1027.5
2023-02-11T09:05:01.141Z,1027.54
2023-02-11T09:06:01.333Z,1027.56
2023-02-11T09:07:01.139Z,1027.57
2023-02-11T09:08:01.144Z,1027.56
2023-02-11T09:09:01.967Z,1027.43
2023-02-11T09:10:02.085Z,1027.49
2023-02-11T09:11:01.143Z,1027.41
2023-02-11T09:12:01.155Z,1027.54
2023-02-11T09:13:01.210Z,1027.5
2023-02-11T09:14:01.900Z,1027.57
2023-02-11T09:15:01.953Z,1027.61
2023-02-11T09:16:01.530Z,1027.52
2023-02-11T09:17:01.297Z,1027.43
2023-02-11T09:18:01.124Z,1027.45
2023-02-11T09:19:02.044Z,1027.44
2023-02-11T09:20:01.578Z,1027.39
2023-02-11T09:21:01.161Z,1027.4
2023-02-11T09:22:01.164Z,1027.27
2023-02-11T09:23:01.155Z,1027.3
2023-02-11T09:24:01.068Z,1027.19
2023-02-11T09:25:01.460Z,1027.26
2023-02-11T09:26:02.295Z,1027.25
2023-02-11T09:27:00.785Z,1027.17
2023-02-11T09:28:00.537Z,1027.26
2023-02-11T09:29:00.288Z,1027.32
2023-02-11T09:29:59.952Z,1027.29
2023-02-11T09:30:59.888Z,1027.17
2023-02-11T09:31:59.891Z,1027.15
2023-02-11T09:32:59.648Z,1027.01
2023-02-11T09:34:01.489Z,1026.95
2023-02-11T09:35:01.235Z,1026.98
2023-02-11T09:36:02.973Z,1026.98
2023-02-11T09:37:01.130Z,1027.03
2023-02-11T09:38:01.151Z,1027.05
2023-02-11T09:39:01.139Z,1027.02
2023-02-11T09:40:01.219Z,1026.96
2023-02-11T09:41:04.926Z,1026.93
2023-02-11T09:42:01.234Z,1026.95
2023-02-11T09:43:04.034Z,1026.99
2023-02-11T09:44:01.134Z,1026.87
2023-02-11T09:45:01.494Z,1026.83
2023-02-11T09:46:07.152Z,1026.85
2023-02-11T09:47:00.706Z,1026.77
2023-02-11T09:48:00.268Z,1026.74
2023-02-11T09:48:59.864Z,1026.82
2023-02-11T09:50:01.925Z,1026.81
2023-02-11T09:51:09.785Z,1026.9
2023-02-11T09:52:01.132Z,1026.9
2023-02-11T09:53:01.306Z,1026.96
2023-02-11T09:54:05.178Z,1027.01
2023-02-11T09:55:01.277Z,1027.06
2023-02-11T09:56:07.888Z,1027.05
2023-02-11T09:57:01.161Z,1027.07
2023-02-11T09:58:01.177Z,1027.06
2023-02-11T09:59:01.475Z,1027.08
2023-02-11T10:00:01.921Z,1027.13
2023-02-11T10:01:15.602Z,1027.21
2023-02-11T10:02:01.191Z,1027.27
2023-02-11T10:03:01.477Z,1027.31
2023-02-11T10:04:01.172Z,1027.34
2023-02-11T10:05:01.146Z,1027.31
2023-02-11T10:06:01.118Z,1027.25
2023-02-11T10:07:01.152Z,1027.26
2023-02-11T10:08:01.127Z,1027.31
2023-02-11T10:09:01.136Z,1027.27
2023-02-11T10:10:01.131Z,1027.32
2023-02-11T10:11:01.153Z,1027.22
2023-02-11T10:12:01.546Z,1027.28
2023-02-11T10:13:01.172Z,1027.26
2023-02-11T10:14:01.179Z,1027.32
2023-02-11T10:15:01.101Z,1027.36
2023-02-11T10:16:01.295Z,1027.28
2023-02-11T10:17:01.081Z,1027.3
2023-02-11T10:18:01.154Z,1027.3
2023-02-11T10:19:01.087Z,1027.34
2023-02-11T10:20:01.100Z,1027.4
2023-02-11T10:21:01.807Z,1027.42
2023-02-11T10:22:01.450Z,1027.45
2023-02-11T10:23:02.137Z,1027.41
2023-02-11T10:24:02.112Z,1027.35
2023-02-11T10:25:01.121Z,1027.27
2023-02-11T10:26:01.180Z,1027.23
2023-02-11T10:27:01.167Z,1027.23
2023-02-11T10:28:01.231Z,1027.31
2023-02-11T10:29:01.153Z,1027.28
2023-02-11T10:30:01.173Z,1027.32
2023-02-11T10:31:01.296Z,1027.46
2023-02-11T10:32:04.177Z,1027.4
2023-02-11T10:33:00.673Z,1027.38
2023-02-11T10:34:00.402Z,1027.42
2023-02-11T10:35:00.049Z,1027.49
2023-02-11T10:35:59.868Z,1027.37
2023-02-11T10:36:59.857Z,1027.37
2023-02-11T10:37:59.563Z,1027.37
2023-02-11T10:39:01.268Z,1027.39
2023-02-11T10:40:02.189Z,1027.37
2023-02-11T10:41:02.063Z,1027.38
2023-02-11T10:42:01.134Z,1027.28
2023-02-11T10:43:01.199Z,1027.22
2023-02-11T10:44:01.163Z,1027.22
2023-02-11T10:45:01.193Z,1027.17
2023-02-11T10:46:01.338Z,1027.18
2023-02-11T10:47:01.177Z,1027.11
2023-02-11T10:48:01.160Z,1027.16
2023-02-11T10:49:01.380Z,1027.17
2023-02-11T10:50:02.631Z,1027.19
2023-02-11T10:51:02.097Z,1027.12
2023-02-11T10:52:02.009Z,1027.16
2023-02-11T10:53:01.122Z,1027.16
2023-02-11T10:54:01.098Z,1027.14
2023-02-11T10:55:01.128Z,1027.14
2023-02-11T10:56:01.123Z,1027.09
2023-02-11T10:57:01.180Z,1027.09
2023-02-11T10:58:01.143Z,1027.06
2023-02-11T10:59:01.176Z,1027.18
2023-02-11T11:00:01.216Z,1027.16
2023-02-11T11:01:03.714Z,1027.13
2023-02-11T11:02:01.293Z,1027.26
2023-02-11T11:03:02.061Z,1027.07
2023-02-11T11:04:01.540Z,1027.19
2023-02-11T11:05:01.205Z,1027.16
2023-02-11T11:06:01.139Z,1027.17
2023-02-11T11:07:01.094Z,1027.12
2023-02-11T11:08:01.184Z,1027.07
2023-02-11T11:09:01.519Z,1027.08
2023-02-11T11:10:01.132Z,1027.1
2023-02-11T11:11:01.131Z,1027.09
2023-02-11T11:12:01.521Z,1027.13
2023-02-11T11:13:00.937Z,1027.11
2023-02-11T11:14:04.195Z,1027.15
2023-02-11T11:15:02.234Z,1027.14
2023-02-11T11:16:01.583Z,1027.05
2023-02-11T11:17:01.152Z,1027.18
2023-02-11T11:18:15.456Z,1027.21
2023-02-11T11:19:01.195Z,1027.19
2023-02-11T11:20:01.225Z,1027.28
2023-02-11T11:21:01.078Z,1027.28
2023-02-11T11:22:01.926Z,1027.25
2023-02-11T11:23:01.119Z,1027.34
2023-02-11T11:24:01.096Z,1027.28
2023-02-11T11:25:01.087Z,1027.25
2023-02-11T11:26:01.135Z,1027.31
2023-02-11T11:27:05.444Z,1027.39
2023-02-11T11:28:01.863Z,1027.41
2023-02-11T11:29:02.314Z,1027.33
2023-02-11T11:30:00.536Z,1027.37
2023-02-11T11:31:00.533Z,1027.32
2023-02-11T11:32:05.315Z,1027.31
2023-02-11T11:33:01.154Z,1027.25
2023-02-11T11:34:01.168Z,1027.29
2023-02-11T11:35:01.178Z,1027.17
2023-02-11T11:36:01.575Z,1027.26
2023-02-11T11:37:09.240Z,1027.2
2023-02-11T11:38:02.283Z,1027.13
2023-02-11T11:39:01.894Z,1027.13
2023-02-11T11:40:01.064Z,1027.07
2023-02-11T11:41:00.672Z,1027.07
2023-02-11T11:42:10.633Z,1027.12
2023-02-11T11:43:01.312Z,1027.09
2023-02-11T11:44:01.131Z,1027.11
2023-02-11T11:45:01.115Z,1027.14
2023-02-11T11:46:01.156Z,1027.03
2023-02-11T11:47:13.711Z,1027.2
2023-02-11T11:48:01.125Z,1027.11
2023-02-11T11:49:01.131Z,1027.09
2023-02-11T11:50:01.140Z,1027.11
2023-02-11T11:51:01.363Z,1027.07
2023-02-11T11:52:16.209Z,1027.1
2023-02-11T11:53:02.203Z,1027
2023-02-11T11:54:01.319Z,1027.07
2023-02-11T11:55:01.075Z,1027.12
2023-02-11T11:56:01.089Z,1027.05
2023-02-11T11:57:01.117Z,1026.97
2023-02-11T11:58:01.119Z,1026.96
2023-02-11T11:59:01.301Z,1026.96
2023-02-11T12:00:01.217Z,1026.96
2023-02-11T12:01:01.413Z,1026.97
2023-02-11T12:02:01.491Z,1027.12
2023-02-11T12:03:01.188Z,1026.96
2023-02-11T12:04:01.133Z,1026.96
2023-02-11T12:05:01.124Z,1027
2023-02-11T12:06:01.153Z,1027.02
2023-02-11T12:07:01.156Z,1027.01
2023-02-11T12:08:01.141Z,1026.98